Main page
METAR-TAF:

METAR-TAF

Airports :

Nausori International Airport

Suva, Fiji

latitude: 18-03S, longitude: 178-34E, elevation: 5 m

Current weather observation

The report was made 32 minutes ago, at 14:00 UTC
Calm wind
Temperature 23°C
Humidity 94%
Pressure 1011 hPa
Visibility 10 km or more
Few clouds at a height of 2500 ft

METAR: NFNA 221400Z 00000KT 9999 FEW025 23/22 Q1011

Time: 02:32 (14:32 UTC)

Forecast

The report was made 3 hours and 16 minutes ago, at 11:16 UTC
Forecast valid from 22 at 12 UTC to 23 at 12 UTC
Wind 7 kt from the East/Southeast
Visibility 10 km or more
Scattered clouds at a height of 2000 ft
Probability 30% :
Temporary
from 23 at 03 UTC to 23 at 08 UTC
Visibility: 5000 m
Broken clouds at a height of 1500 ft
rain showers

TAF: NFNA 221116Z 2212/2312 12007KT 9999 SCT020 PROB30 TEMPO 2303/2308 5000 SHRA BKN015

Weather observations and forecasts of more than 4000 airports (METAR and TAF reports).

The available stations are represented by yellow and red dots on the map.

Hover mouse over dot to see the name of the station.

Then click to see weather observations and forecasts.

To change the map : click on the green buttons with a black cross to zoom in, on the green button with a dash to zoom out, or on the green arrows for adjacent maps.


METAR-TAF: